Terminal Aerodrome Forecast
Issued by NWS Quad Cities IA IL

Home | Current Version | Previous Version | Text Only | Print | Product List | Glossary On
Versions: 1 2 3 4 5 6 7 8 9 10 11 12 13 14 15 16 17
000
FTUS43 KDVN 042320
TAFDBQ
TAF
KDBQ 042320Z 0500/0524 19005KT P6SM SCT050
     FM050100 15003KT P6SM SCT120
     FM050800 VRB02KT 3SM BR SCT250
      TEMPO 0508/0512 1/2SM FG BKN002
     FM051400 20006KT P6SM SCT120=

USA.gov is the U.S. government's official web portal to all federal, state and local government web resources and services.